Time;durP1;ratioP1;P1;durP2;ratioP2;P2;SDS_P1;SDS_P2;PMS_P1;PMS_P2;Temp;Humidity;BMP_temperature;BMP_pressure;BME280_temperature;BME280_humidity;BME280_pressure;Samples;Min_cycle;Max_cycle;Signal;HPM_P1;HPM_P2
2022/04/22 00:00:45;;;;;;;15.50;10.57;;;15.30;99.90;;;15.39;60.42;100828.28;5073354;28;20127;-70
2022/04/22 00:03:13;;;;;;;14.13;10.70;;;15.10;99.90;;;15.24;60.54;100813.56;5073400;28;20048;-68
2022/04/22 00:05:41;;;;;;;14.38;11.00;;;15.10;99.90;;;15.23;60.59;100818.94;5073611;28;20074;-68
2022/04/22 00:08:11;;;;;;;12.68;10.75;;;15.00;99.90;;;15.14;60.86;100816.47;5073258;28;20036;-68
2022/04/22 00:11:29;;;;;;;14.80;10.27;;;14.80;99.90;;;15.13;60.75;100823.59;5073652;28;20044;-68
2022/04/22 00:13:29;;;;;;;12.60;9.57;;;14.80;99.90;;;14.97;61.20;100830.19;5073483;28;20048;-68
2022/04/22 00:15:57;;;;;;;17.75;10.07;;;14.70;99.90;;;14.96;60.95;100825.75;5073345;28;20041;-68
2022/04/22 00:18:26;;;;;;;14.18;9.80;;;14.70;99.90;;;14.57;61.44;100828.44;5073335;28;20501;-68
2022/04/22 00:20:54;;;;;;;11.32;9.05;;;14.50;99.90;;;14.56;61.96;100832.00;5073088;28;20578;-68
2022/04/22 00:23:25;;;;;;;18.02;9.80;;;14.30;99.90;;;14.60;62.10;100823.94;5073366;28;20072;-68
2022/04/22 00:25:54;;;;;;;13.25;9.45;;;14.30;99.90;;;14.65;62.33;100829.16;5073201;28;20135;-68
2022/04/22 00:28:23;;;;;;;11.02;9.45;;;14.30;99.90;;;14.67;61.79;100830.00;5073073;28;20110;-69
2022/04/22 00:30:54;;;;;;;12.98;10.27;;;14.40;99.90;;;14.47;61.96;100795.81;5072915;28;20044;-68
2022/04/22 00:33:23;;;;;;;12.05;9.30;;;14.40;99.90;;;14.70;62.02;100825.50;5073226;28;20032;-68
2022/04/22 00:35:51;;;;;;;11.55;9.13;;;14.40;99.90;;;14.82;61.93;100835.88;5073015;28;20119;-68
2022/04/22 00:38:19;;;;;;;11.65;9.05;;;14.50;99.90;;;14.93;61.83;100831.19;5072996;28;20098;-71
2022/04/22 00:40:49;;;;;;;11.65;9.10;;;14.60;99.90;;;14.75;61.71;100804.94;5072948;28;20082;-68
2022/04/22 00:43:19;;;;;;;13.13;8.93;;;14.60;99.90;;;14.92;61.49;100826.78;5072951;28;20053;-68
2022/04/22 00:45:51;;;;;;;11.77;9.02;;;14.60;99.90;;;14.50;62.27;100821.50;5077074;28;20090;-68
2022/04/22 00:48:21;;;;;;;12.00;8.90;;;14.40;99.90;;;14.50;62.54;100824.16;5079559;28;20044;-68
2022/04/22 00:50:50;;;;;;;11.27;8.93;;;14.30;99.90;;;14.76;62.26;100828.03;5079598;28;20110;-68
2022/04/22 00:53:18;;;;;;;10.85;8.60;;;14.40;99.90;;;14.74;61.65;100829.84;5079444;28;20067;-68
2022/04/22 00:55:47;;;;;;;10.90;8.20;;;14.40;99.90;;;14.87;61.46;100822.44;5079496;28;20041;-70
2022/04/22 00:58:18;;;;;;;9.25;7.78;;;14.50;99.90;;;14.68;61.14;100800.69;5079547;28;20104;-69
2022/04/22 01:00:47;;;;;;;9.43;8.02;;;14.50;99.90;;;14.45;61.84;100800.31;5079673;28;20056;-70
2022/04/22 01:03:16;;;;;;;14.20;8.38;;;14.30;99.90;;;14.69;61.32;100804.22;5079438;28;20115;-67
2022/04/22 01:11:16;;;;;;;13.77;8.60;;;14.30;99.90;;;14.61;61.65;100812.38;5079606;28;20076;-68
2022/04/22 01:13:46;;;;;;;11.13;7.88;;;14.30;99.90;;;14.61;61.87;100806.19;5079575;28;20123;-68
2022/04/22 01:16:16;;;;;;;11.85;7.75;;;14.30;99.90;;;14.64;61.65;100812.31;5079574;28;20053;-68
2022/04/22 01:18:45;;;;;;;13.07;8.32;;;14.30;99.90;;;14.72;61.38;100801.47;5061666;28;20481;-68
2022/04/22 01:21:15;;;;;;;9.65;8.05;;;14.30;99.90;;;14.77;61.15;100800.47;5079515;28;20566;-68
2022/04/22 01:23:43;;;;;;;12.98;8.48;;;14.40;99.90;;;14.62;61.23;100795.50;5079350;28;20490;-68
2022/04/22 01:26:12;;;;;;;10.35;8.32;;;14.30;99.90;;;14.65;61.01;100786.56;5079250;28;20064;-68
2022/04/22 01:28:40;;;;;;;11.38;7.95;;;14.40;99.90;;;14.32;61.50;100758.91;5079402;28;20124;-68
2022/04/22 01:31:09;;;;;;;12.15;8.57;;;14.20;99.90;;;14.61;61.62;100798.19;5079407;28;20067;-68
2022/04/22 01:33:37;;;;;;;10.63;8.43;;;14.20;99.90;;;14.42;61.60;100787.03;5079082;28;20555;-68
2022/04/22 01:36:08;;;;;;;9.82;8.10;;;14.10;99.90;;;14.57;61.46;100789.41;5079292;28;20083;-69
2022/04/22 01:38:38;;;;;;;11.10;8.63;;;14.20;99.90;;;14.39;61.50;100756.06;5079460;28;20102;-68
2022/04/22 01:41:06;;;;;;;10.55;9.18;;;14.30;99.90;;;14.56;61.50;100797.41;5078034;28;20105;-68
2022/04/22 01:43:35;;;;;;;11.13;8.85;;;14.30;99.90;;;14.57;61.65;100793.84;5079046;28;20069;-68
2022/04/22 01:46:04;;;;;;;9.15;8.25;;;14.20;99.90;;;14.65;61.50;100800.75;5078955;28;20131;-68
2022/04/22 01:48:32;;;;;;;12.05;8.98;;;14.30;99.90;;;14.56;61.42;100792.06;5061088;28;20063;-68
2022/04/22 01:51:01;;;;;;;16.27;9.30;;;14.20;99.90;;;14.61;61.64;100787.53;5078989;28;20040;-68
2022/04/22 01:53:29;;;;;;;13.45;8.93;;;14.20;99.90;;;14.57;61.40;100792.06;5079125;28;20414;-71
2022/04/22 01:56:04;;;;;;;10.07;9.00;;;14.20;99.90;;;14.46;61.55;100791.41;5078369;28;20143;-68
2022/04/22 01:58:33;;;;;;;11.80;9.52;;;14.20;99.90;;;14.55;61.88;100785.91;5057616;28;20560;-68
2022/04/22 02:01:02;;;;;;;15.90;9.82;;;14.20;99.90;;;14.43;61.92;100776.41;5075688;28;20036;-68
2022/04/22 02:03:30;;;;;;;10.55;9.13;;;14.20;99.90;;;14.55;61.83;100785.91;5075705;28;20076;-68
2022/04/22 02:05:59;;;;;;;10.98;9.43;;;14.20;99.90;;;14.50;61.98;100787.75;5075877;28;20040;-68
2022/04/22 02:08:27;;;;;;;10.40;9.30;;;14.20;99.90;;;14.49;62.03;100780.69;5075881;28;20044;-68
2022/04/22 02:10:55;;;;;;;11.63;9.73;;;14.20;99.90;;;14.48;61.83;100785.13;5075437;28;20080;-68
2022/04/22 02:13:25;;;;;;;12.07;9.88;;;14.10;99.90;;;14.45;61.91;100784.34;5075527;28;20070;-70
2022/04/22 02:15:54;;;;;;;11.52;10.15;;;14.10;99.90;;;14.35;62.02;100761.50;5075549;28;20204;-68
2022/04/22 02:18:22;;;;;;;13.07;9.98;;;14.10;99.90;;;14.40;62.29;100771.13;5075583;28;20037;-68
2022/04/22 02:20:50;;;;;;;13.20;9.50;;;14.10;99.90;;;14.38;62.54;100764.09;5075666;28;20123;-68
2022/04/22 02:23:19;;;;;;;14.15;9.73;;;14.00;99.90;;;14.36;62.49;100758.78;5075523;28;20090;-68
2022/04/22 02:25:47;;;;;;;15.10;10.00;;;14.00;99.90;;;14.28;62.51;100766.09;5075452;28;20048;-68
2022/04/22 02:28:33;;;;;;;14.48;10.30;;;14.00;99.90;;;14.27;62.59;100758.06;5075516;28;20056;-68
2022/04/22 02:31:07;;;;;;;11.75;10.18;;;13.90;99.90;;;14.06;62.75;100758.53;5075120;28;20498;-68
2022/04/22 02:33:38;;;;;;;14.43;10.60;;;13.90;99.90;;;14.03;63.12;100739.97;5075188;28;20036;-68
2022/04/22 02:36:07;;;;;;;14.95;10.65;;;13.90;99.90;;;13.95;63.52;100750.78;5075463;28;20052;-69
2022/04/22 02:38:37;;;;;;;13.97;10.60;;;13.70;99.90;;;14.01;63.86;100750.66;5075427;28;20041;-68
2022/04/22 02:46:39;;;;;;;13.50;11.18;;;13.80;99.90;;;14.02;63.74;100756.84;5075180;28;20045;-68
2022/04/22 02:49:08;;;;;;;12.70;10.50;;;13.70;99.90;;;13.92;64.16;100755.25;5074784;28;20129;-68
2022/04/22 02:51:37;;;;;;;15.07;10.80;;;13.60;99.90;;;13.82;64.46;100749.25;5075281;28;20057;-68
2022/04/22 02:54:05;;;;;;;17.70;10.98;;;13.50;99.90;;;13.77;64.76;100735.19;5075317;28;20048;-68
2022/04/22 02:56:34;;;;;;;14.52;11.38;;;13.50;99.90;;;13.58;65.03;100747.06;5057030;28;20079;-69
2022/04/22 02:59:02;;;;;;;13.85;11.07;;;13.40;99.90;;;12.81;65.14;100615.66;5074924;28;20461;-68
2022/04/22 03:01:31;;;;;;;13.38;10.52;;;13.30;99.90;;;13.47;65.76;100730.47;5074890;28;20136;-68
2022/04/22 03:04:01;;;;;;;13.07;10.85;;;13.20;99.90;;;13.61;65.57;100743.50;5074822;28;20044;-68
2022/04/22 03:06:29;;;;;;;15.90;10.88;;;13.30;99.90;;;13.56;65.58;100741.78;5074414;28;20135;-69
2022/04/22 03:08:58;;;;;;;17.95;11.65;;;13.30;99.90;;;13.46;65.75;100724.25;5074218;28;20105;-68
2022/04/22 03:11:26;;;;;;;15.57;11.40;;;13.20;99.90;;;13.21;66.38;100730.03;5074274;28;20052;-68
2022/04/22 03:13:56;;;;;;;13.95;11.02;;;13.00;99.90;;;13.31;66.71;100739.59;5074921;28;20048;-68
2022/04/22 03:16:26;;;;;;;16.33;12.32;;;13.00;99.90;;;13.34;66.60;100740.41;5074244;28;20452;-68
2022/04/22 03:18:55;;;;;;;16.05;10.98;;;13.10;99.90;;;13.38;66.99;100739.47;5074333;28;20040;-68
2022/04/22 03:21:24;;;;;;;15.40;11.07;;;13.00;99.90;;;13.46;66.47;100749.94;5074139;28;20114;-68
2022/04/22 03:23:53;;;;;;;16.13;10.65;;;13.10;99.90;;;13.54;66.36;100730.31;5074344;28;20052;-68
2022/04/22 03:26:22;;;;;;;12.75;10.57;;;13.20;99.90;;;13.55;66.41;100732.06;5056424;28;20478;-68
2022/04/22 03:28:55;;;;;;;14.20;10.40;;;13.20;99.90;;;13.52;66.29;100726.81;5074024;28;20131;-68
2022/04/22 03:31:24;;;;;;;14.48;11.15;;;13.20;99.90;;;13.57;66.31;100716.06;5074094;28;20467;-68
2022/04/22 03:33:52;;;;;;;14.55;10.18;;;13.30;99.90;;;13.69;66.46;100722.94;5073971;28;20040;-68
2022/04/22 03:36:21;;;;;;;15.90;11.35;;;13.30;99.90;;;13.71;66.38;100721.13;5074097;28;20121;-68
2022/04/22 03:38:51;;;;;;;12.65;10.48;;;13.40;99.90;;;13.76;66.82;100720.16;5056201;28;20498;-68
2022/04/22 03:41:20;;;;;;;13.80;9.93;;;13.40;99.90;;;13.70;67.25;100716.72;5073955;28;20048;-68
2022/04/22 03:43:48;;;;;;;15.82;9.90;;;13.40;99.90;;;13.67;67.40;100716.75;5073934;28;20040;-68
2022/04/22 03:46:17;;;;;;;14.57;10.65;;;13.40;99.90;;;13.61;68.01;100704.47;5073951;28;20573;-68
2022/04/22 03:48:46;;;;;;;13.15;10.02;;;13.30;99.90;;;13.64;68.56;100712.41;5074262;28;20053;-68
2022/04/22 03:51:15;;;;;;;22.15;10.38;;;13.30;99.90;;;13.69;68.78;100715.84;5073520;28;20079;-68
2022/04/22 03:53:43;;;;;;;13.75;10.25;;;13.40;99.90;;;13.70;68.83;100708.75;5073865;28;20053;-71
2022/04/22 03:58:59;;;;;;;11.98;10.30;;;13.40;99.90;;;13.63;69.91;100710.63;5073557;28;20124;-68
2022/04/22 04:01:27;;;;;;;15.00;10.25;;;13.40;99.90;;;13.28;70.53;100687.41;5073456;28;20044;-68
2022/04/22 04:03:55;;;;;;;12.65;9.93;;;13.20;99.90;;;13.52;70.79;100707.31;5073393;28;20044;-68
2022/04/22 04:06:26;;;;;;;11.60;9.82;;;13.20;99.90;;;13.48;71.26;100721.56;5073377;28;20049;-68
2022/04/22 04:17:14;;;;;;;11.70;9.50;;;13.20;99.90;;;13.46;72.16;100720.72;5042318;28;20135;-68
2022/04/22 04:25:14;;;;;;;12.98;10.45;;;13.00;99.90;;;13.22;73.53;100718.53;5073013;28;20040;-68
2022/04/22 04:27:45;;;;;;;18.13;11.02;;;13.00;99.90;;;13.07;74.38;100718.75;5073083;28;20402;-68
2022/04/22 04:30:14;;;;;;;;;;;12.80;99.90;;;13.13;74.50;100726.63;5073580;28;20048;-68
2022/04/22 04:32:42;;;;;;;14.75;11.13;;;12.80;99.90;;;13.14;74.43;100713.31;5073360;28;19921;-68
2022/04/22 04:35:11;;;;;;;13.30;10.70;;;12.90;99.90;;;13.24;74.55;100730.00;5073082;28;20094;-68
2022/04/22 04:37:41;;;;;;;15.88;11.80;;;12.90;99.90;;;13.08;74.91;100726.72;5073196;28;20060;-68
2022/04/22 04:40:10;;;;;;;20.08;11.75;;;12.80;99.90;;;13.03;75.12;100723.25;5072983;28;20486;-68
2022/04/22 04:42:41;;;;;;;16.50;12.38;;;12.80;99.90;;;12.65;75.92;100723.84;5073190;28;20045;-69
2022/04/22 04:45:11;;;;;;;;;;;12.50;99.90;;;12.72;76.12;100721.97;5073492;28;20466;-68
2022/04/22 04:47:41;;;;;;;17.60;12.00;;;12.50;99.90;;;12.79;76.49;100730.72;5072845;28;19920;-68
2022/04/22 04:50:11;;;;;;;17.05;11.98;;;12.50;99.90;;;12.89;76.40;100719.91;5072822;28;20048;-68
2022/04/22 04:52:41;;;;;;;14.20;12.05;;;12.60;99.90;;;13.02;75.92;100732.09;5073343;28;20401;-68
2022/04/22 04:55:13;;;;;;;17.17;12.03;;;12.70;99.90;;;13.00;75.95;100730.38;5072823;28;20068;-69
2022/04/22 04:57:42;;;;;;;20.75;12.82;;;12.70;99.90;;;12.84;76.59;100726.19;5072807;28;20040;-68
2022/04/22 05:00:19;;;;;;;17.73;12.43;;;12.60;99.90;;;12.81;76.70;100710.34;5073096;28;20052;-68
2022/04/22 05:02:48;;;;;;;16.50;13.20;;;12.60;99.90;;;12.93;76.55;100726.06;5072861;28;20119;-68
2022/04/22 05:05:17;;;;;;;16.30;11.90;;;12.60;99.90;;;12.80;76.59;100730.69;5072695;28;20068;-68
2022/04/22 05:07:50;;;;;;;15.10;12.40;;;12.60;99.90;;;12.89;76.55;100725.22;5072708;28;20045;-68
2022/04/22 05:10:19;;;;;;;15.15;12.85;;;12.60;99.90;;;12.94;76.37;100726.03;5072858;28;20072;-68
2022/04/22 05:12:48;;;;;;;13.80;11.77;;;12.60;99.90;;;12.98;76.27;100724.19;5073238;28;20131;-68
2022/04/22 05:15:20;;;;;;;16.23;12.98;;;12.70;99.90;;;12.97;76.37;100717.16;5072621;28;20048;-68
2022/04/22 05:17:49;;;;;;;15.95;12.82;;;12.70;99.90;;;12.86;76.70;100709.34;5072869;28;20435;-68
2022/04/22 05:20:19;;;;;;;16.08;13.27;;;12.60;99.90;;;13.04;76.52;100719.72;5072522;28;20067;-69
2022/04/22 05:22:49;;;;;;;18.27;12.90;;;12.70;99.90;;;13.07;76.37;100730.28;5072846;28;20494;-68
2022/04/22 05:25:18;;;;;;;18.20;14.10;;;12.80;99.90;;;12.98;76.42;100724.19;5072557;28;20240;-70
2022/04/22 05:27:47;;;;;;;17.80;13.27;;;12.70;99.90;;;13.17;76.17;100723.00;5072473;28;20043;-68
2022/04/22 05:33:05;;;;;;;16.20;13.23;;;12.90;99.90;;;13.35;75.06;100717.38;5075240;28;20036;-68
2022/04/22 05:35:34;;;;;;;16.85;14.13;;;13.00;99.90;;;13.31;75.11;100716.56;5058343;28;20139;-70
2022/04/22 05:38:05;;;;;;;17.52;14.07;;;13.00;99.90;;;13.00;75.48;100698.50;5076103;28;20047;-68
2022/04/22 05:40:36;;;;;;;18.65;13.18;;;13.00;99.90;;;13.26;74.69;100717.53;5076515;28;20037;-68
2022/04/22 05:43:05;;;;;;;;;;;13.00;99.90;;;13.33;74.54;100722.75;5077029;28;20051;-69
2022/04/22 05:45:37;;;;;;;20.10;13.95;;;13.00;99.90;;;13.21;74.51;100730.03;5076278;28;19928;-68
2022/04/22 05:48:07;;;;;;;16.42;13.07;;;13.00;99.90;;;13.48;74.03;100725.09;5075933;28;20084;-69
2022/04/22 05:50:35;;;;;;;18.53;13.23;;;13.10;99.90;;;13.65;73.83;100726.56;5075866;28;20072;-69
2022/04/22 05:53:04;;;;;;;14.82;13.20;;;13.30;99.90;;;13.47;73.30;100701.22;5075831;28;20512;-68
2022/04/22 05:55:33;;;;;;;15.80;13.25;;;13.40;99.90;;;13.49;73.43;100733.97;5076026;28;20143;-68
2022/04/22 05:58:02;;;;;;;18.48;13.38;;;13.30;99.90;;;13.75;72.97;100733.44;5075778;28;20120;-68
2022/04/22 06:00:31;;;;;;;16.60;13.30;;;13.40;99.90;;;13.72;73.35;100715.81;5075720;28;20497;-68
2022/04/22 06:03:02;;;;;;;15.60;13.32;;;13.40;99.90;;;13.92;72.75;100745.50;5075595;28;20048;-68
2022/04/22 06:05:32;;;;;;;;;;;13.60;99.90;;;13.82;72.56;100738.59;5057863;28;20049;-68
2022/04/22 06:11:02;;;;;;;15.20;13.02;;;13.80;99.90;;;14.33;71.40;100737.59;5051030;28;20167;-72
2022/04/22 06:13:30;;;;;;;15.60;13.10;;;14.00;99.90;;;14.24;70.81;100737.75;5075482;28;20091;-68
2022/04/22 06:15:58;;;;;;;14.93;13.15;;;14.00;99.90;;;14.03;72.26;100722.22;5075218;28;20123;-68
2022/04/22 06:18:28;;;;;;;17.58;13.45;;;13.70;99.90;;;14.17;71.65;100728.13;5075357;28;20083;-68
2022/04/22 06:20:57;;;;;;;17.45;13.65;;;13.80;99.90;;;14.45;71.17;100726.66;5075559;28;20040;-68
2022/04/22 06:23:25;;;;;;;16.77;13.57;;;14.00;99.90;;;14.40;70.44;100727.69;5075532;28;20037;-68
2022/04/22 06:25:53;;;;;;;17.95;12.85;;;14.10;99.90;;;14.50;69.93;100718.56;5075153;28;20105;-70
2022/04/22 06:28:22;;;;;;;16.48;13.57;;;14.20;99.90;;;14.68;69.50;100723.47;5075344;28;20149;-68
2022/04/22 06:30:51;;;;;;;15.00;13.15;;;14.30;99.90;;;14.59;69.51;100721.03;5075288;28;20072;-69
2022/04/22 06:33:20;;;;;;;16.33;13.45;;;14.30;99.90;;;14.22;69.85;100691.69;5075333;28;20123;-71
2022/04/22 06:35:50;;;;;;;19.40;14.02;;;14.10;99.90;;;13.83;71.92;100718.22;5074940;28;20505;-68
2022/04/22 06:38:21;;;;;;;17.63;14.60;;;13.70;99.90;;;13.52;73.17;100716.19;5075350;28;20152;-68
2022/04/22 06:46:23;;;;;;;17.38;15.05;;;13.60;99.90;;;14.05;72.19;100709.75;5075131;28;20565;-68
2022/04/22 06:48:52;;;;;;;17.67;15.00;;;13.70;99.90;;;14.18;71.46;100703.28;5075161;28;20059;-68
2022/04/22 06:51:23;;;;;;;19.33;15.45;;;13.80;99.90;;;14.33;71.24;100700.31;5057070;28;20426;-76
2022/04/22 06:53:55;;;;;;;18.17;15.75;;;14.00;99.90;;;14.29;70.46;100669.38;5074755;28;20140;-69
2022/04/22 06:56:27;;;;;;;19.10;15.18;;;14.20;99.90;;;14.34;70.30;100693.22;5074880;28;20090;-68
2022/04/22 06:58:56;;;;;;;20.00;16.13;;;14.20;99.90;;;13.92;73.02;100715.38;5074601;28;20101;-69
2022/04/22 07:01:26;;;;;;;18.90;15.55;;;13.80;99.90;;;13.94;72.29;100711.78;5074409;28;20090;-69
2022/04/22 07:04:15;;;;;;;21.13;16.48;;;13.80;99.90;;;13.59;74.31;100723.13;5074795;28;20054;-70
2022/04/22 07:06:45;;;;;;;23.50;16.83;;;13.30;99.90;;;13.35;75.11;100707.66;5056657;28;20494;-69
2022/04/22 07:09:14;;;;;;;23.77;17.35;;;13.10;99.90;;;13.79;73.66;100717.41;5074656;28;20102;-70
2022/04/22 07:11:43;;;;;;;22.58;16.55;;;13.40;99.90;;;13.96;72.85;100671.84;5074602;28;20044;-70
2022/04/22 07:14:13;;;;;;;21.63;17.92;;;13.70;99.90;;;14.50;71.47;100717.72;5074261;28;20071;-69
2022/04/22 07:16:45;;;;;;;22.20;18.20;;;14.00;99.90;;;14.56;71.14;100718.44;5074418;28;20472;-69
2022/04/22 07:19:14;;;;;;;22.02;16.77;;;14.20;99.90;;;14.70;69.95;100713.66;5074185;28;20048;-69
2022/04/22 07:21:44;;;;;;;20.77;17.15;;;14.40;99.90;;;14.96;69.39;100716.56;5074065;28;20041;-69
2022/04/22 07:24:13;;;;;;;20.40;16.50;;;14.60;99.90;;;15.21;68.98;100715.03;5074029;28;20055;-70
2022/04/22 07:26:44;;;;;;;24.63;17.38;;;14.80;99.90;;;15.39;67.66;100706.56;5074225;28;20098;-71
2022/04/22 07:29:14;;;;;;;;;;;15.10;99.90;;;15.35;67.50;100712.88;5074357;28;20041;-71
2022/04/22 07:31:43;;;;;;;21.45;17.42;;;15.10;99.90;;;15.08;66.94;100639.00;5073552;28;19964;-71
2022/04/22 07:34:12;;;;;;;21.42;17.17;;;15.20;99.90;;;15.01;68.18;100698.69;5073765;28;20040;-69
2022/04/22 07:36:41;;;;;;;23.45;17.83;;;14.80;99.90;;;14.74;68.71;100680.72;5073730;28;20041;-69
2022/04/22 07:39:12;;;;;;;24.08;17.05;;;14.70;99.90;;;14.89;68.03;100703.44;5073724;28;20040;-71
2022/04/22 07:41:41;;;;;;;23.13;18.02;;;14.70;99.90;;;14.86;69.93;100693.75;5074009;28;20071;-71
2022/04/22 07:47:02;;;;;;;24.60;18.25;;;14.50;99.90;;;14.41;70.64;100700.16;5073210;28;20044;-68
2022/04/22 07:49:32;;;;;;;21.33;17.67;;;14.20;99.90;;;15.07;69.50;100705.66;5073875;28;20047;-71
2022/04/22 07:52:00;;;;;;;25.75;18.60;;;14.60;99.90;;;15.50;68.16;100708.09;5073389;28;20068;-69
2022/04/22 07:54:30;;;;;;;23.40;17.20;;;15.10;99.90;;;15.21;67.06;100706.19;5072962;28;20429;-68
2022/04/22 07:56:58;;;;;;;26.30;18.73;;;15.00;99.90;;;15.43;67.59;100698.53;5073491;28;20168;-71
2022/04/22 07:59:28;;;;;;;26.17;18.17;;;15.10;99.90;;;15.73;66.39;100711.00;5073421;28;20081;-72
2022/04/22 08:01:58;;;;;;;23.42;18.60;;;15.40;99.90;;;15.84;65.48;100685.78;5073736;28;20059;-78
2022/04/22 08:04:28;;;;;;;27.92;18.10;;;15.60;99.90;;;16.07;64.86;100706.44;5073757;28;20121;-70
2022/04/22 08:06:57;;;;;;;20.48;16.60;;;15.70;99.90;;;16.18;64.22;100715.03;5073548;28;20060;-73
2022/04/22 08:09:47;;;;;;;23.88;16.88;;;15.80;99.90;;;16.36;63.74;100701.09;5055572;28;20072;-73
2022/04/22 08:12:16;;;;;;;22.30;17.52;;;16.10;99.90;;;16.52;62.91;100694.41;5073502;28;20044;-74
2022/04/22 08:14:44;;;;;;;27.27;17.65;;;16.20;99.90;;;16.49;62.65;100713.19;5073084;28;20052;-74
2022/04/22 08:17:15;;;;;;;24.88;17.90;;;16.20;99.90;;;16.60;62.57;100708.41;5073181;28;20087;-73
2022/04/22 08:19:46;;;;;;;24.45;16.75;;;16.30;99.90;;;16.06;62.61;100708.25;5073398;28;20048;-73
2022/04/22 08:22:15;;;;;;;23.17;18.23;;;16.00;99.90;;;16.02;64.23;100711.06;5073129;28;20067;-73
2022/04/22 08:24:43;;;;;;;24.20;18.45;;;15.70;99.90;;;16.00;63.91;100710.22;5073304;28;20076;-68
2022/04/22 08:27:13;;;;;;;24.50;17.33;;;15.80;99.90;;;16.38;63.76;100701.06;5073349;28;20032;-68
2022/04/22 08:29:44;;;;;;;23.60;17.13;;;16.00;99.90;;;16.06;64.19;100696.72;5073241;28;20461;-79
2022/04/22 08:32:13;;;;;;;23.92;17.58;;;15.80;99.90;;;16.42;63.33;100692.03;5071135;28;20154;-65
2022/04/22 08:34:41;;;;;;;23.30;18.05;;;16.10;99.90;;;15.99;62.99;100701.34;5072682;28;20130;-75
2022/04/22 08:37:10;;;;;;;24.08;16.98;;;15.90;99.90;;;16.09;63.99;100691.25;5073030;28;20087;-74
2022/04/22 08:39:38;;;;;;;23.73;17.02;;;15.80;99.90;;;16.29;62.45;100704.91;5072763;28;20044;-75
2022/04/22 08:42:08;;;;;;;25.65;16.95;;;15.90;99.90;;;15.95;62.72;100698.81;5072910;28;20488;-71
2022/04/22 08:44:58;;;;;;;22.52;16.70;;;15.80;99.90;;;15.55;64.70;100692.84;5055202;28;20486;-73
2022/04/22 08:50:16;;;;;;;25.98;16.90;;;15.40;99.90;;;16.03;62.91;100691.44;5072864;28;20032;-65
2022/04/22 08:52:53;;;;;;;23.63;16.15;;;15.70;99.90;;;16.37;63.06;100684.19;5073061;28;20075;-64
2022/04/22 08:55:21;;;;;;;20.15;15.38;;;15.90;99.90;;;16.63;61.72;100670.91;5073070;28;20041;-64
2022/04/22 08:57:51;;;;;;;23.35;16.13;;;16.30;99.90;;;16.88;60.99;100658.50;5072722;28;20127;-64
2022/04/22 09:00:23;;;;;;;23.30;16.75;;;16.50;99.90;;;17.00;60.67;100663.44;5072699;28;20079;-73
2022/04/22 09:02:51;;;;;;;21.77;16.08;;;16.70;99.90;;;17.22;59.71;100638.63;5072979;28;20461;-79
2022/04/22 09:05:20;;;;;;;19.80;15.45;;;17.00;99.90;;;17.54;58.90;100670.47;5054992;28;20063;-76
2022/04/22 09:07:48;;;;;;;19.25;14.55;;;17.20;99.90;;;17.63;57.95;100676.38;5076514;28;20048;-64
2022/04/22 09:10:17;;;;;;;25.20;16.33;;;17.30;99.90;;;17.69;57.70;100661.91;5076617;28;20117;-64
2022/04/22 09:12:52;;;;;;;30.00;16.92;;;17.40;99.90;;;17.62;57.20;100668.38;5076500;28;20437;-65
2022/04/22 09:15:25;;;;;;;22.02;14.98;;;17.40;99.90;;;17.36;57.66;100663.97;5076603;28;20094;-64
2022/04/22 09:17:57;;;;;;;24.38;16.10;;;17.10;99.90;;;17.43;57.50;100656.56;5076803;28;20048;-65
2022/04/22 09:20:32;;;;;;;23.42;15.63;;;17.20;99.90;;;17.44;57.65;100615.56;5076760;28;20057;-64
2022/04/22 09:23:01;;;;;;;24.33;16.20;;;17.30;99.90;;;17.45;57.69;100636.00;5076759;28;20041;-64
2022/04/22 09:25:30;;;;;;;19.55;15.30;;;17.10;99.90;;;16.93;57.31;100624.50;5076280;28;20045;-63
2022/04/22 09:28:10;;;;;;;21.90;16.20;;;16.90;99.90;;;16.77;58.75;100633.94;5076832;28;20467;-66
2022/04/22 09:30:42;;;;;;;23.60;15.77;;;16.60;99.90;;;16.91;58.36;100626.34;5076524;28;20444;-64
2022/04/22 09:33:10;;;;;;;20.63;15.35;;;16.60;99.90;;;16.76;58.52;100634.00;5076496;28;20044;-74
2022/04/22 09:44:02;;;;;;;25.92;16.33;;;15.50;99.90;;;16.23;61.18;100625.00;5075915;28;20052;-64
2022/04/22 09:46:32;;;;;;;31.73;17.73;;;15.90;99.90;;;16.16;61.71;100623.47;5076127;28;20375;-68
2022/04/22 09:49:01;;;;;;;30.30;15.93;;;15.80;99.90;;;16.24;61.33;100616.06;5076182;28;20510;-65
2022/04/22 09:51:31;;;;;;;29.40;17.13;;;16.00;99.90;;;16.44;61.08;100584.28;5075853;28;20076;-64
2022/04/22 09:54:01;;;;;;;47.40;33.90;;;16.20;99.90;;;16.52;60.17;100611.63;5076001;28;20424;-66
2022/04/22 09:56:31;;;;;;;23.88;15.35;;;16.30;99.90;;;16.68;59.90;100618.22;5076085;28;20131;-74
2022/04/22 09:59:00;;;;;;;22.02;15.65;;;16.40;99.90;;;17.04;58.42;100611.63;5076035;28;20110;-66
2022/04/22 10:01:28;;;;;;;32.17;15.88;;;16.70;99.90;;;17.25;58.92;100604.63;5075864;28;20047;-65
2022/04/22 10:04:19;;;;;;;21.35;14.68;;;16.90;99.90;;;17.14;58.26;100618.41;5075694;28;20076;-65
2022/04/22 10:06:50;;;;;;;18.08;14.75;;;16.90;99.90;;;17.37;57.65;100589.94;5075534;28;20401;-65
2022/04/22 10:09:20;;;;;;;21.45;15.00;;;17.10;99.90;;;17.39;56.70;100607.69;5075391;28;20440;-65
2022/04/22 10:11:52;;;;;;;;;;;17.10;99.90;;;17.55;56.75;100600.00;5075794;28;20502;-64
2022/04/22 10:14:35;;;;;;;19.25;13.98;;;17.20;99.90;;;16.92;57.44;100595.13;5075394;28;19921;-64
2022/04/22 10:17:05;;;;;;;21.30;14.52;;;17.00;99.90;;;16.73;59.15;100610.03;5075333;28;20048;-64
2022/04/22 10:19:36;;;;;;;18.02;14.63;;;16.60;99.90;;;16.58;59.72;100590.06;5057049;28;20048;-65
2022/04/22 10:22:07;;;;;;;17.42;13.75;;;16.40;99.90;;;17.16;59.47;100594.28;5075524;28;20105;-65
2022/04/22 10:24:36;;;;;;;21.00;14.57;;;16.70;99.90;;;17.68;56.57;100586.13;5075578;28;20075;-76
2022/04/22 10:27:07;;;;;;;21.40;13.60;;;17.20;99.90;;;18.04;56.73;100581.13;5075191;28;20040;-65
2022/04/22 10:29:37;;;;;;;15.38;12.85;;;17.60;99.90;;;18.42;54.42;100588.56;5075127;28;20410;-66
2022/04/22 10:32:08;;;;;;;19.83;13.27;;;18.00;99.90;;;18.26;53.54;100554.38;5075125;28;20044;-66
2022/04/22 10:34:43;;;;;;;19.55;13.40;;;18.20;99.90;;;18.53;53.21;100596.13;5075290;28;20140;-66
2022/04/22 10:37:20;;;;;;;16.30;13.10;;;18.20;99.90;;;18.34;52.69;100531.72;5075406;28;20744;-67
2022/04/22 10:39:51;;;;;;;17.10;13.70;;;18.20;99.90;;;18.20;52.49;100576.03;5075000;28;20127;-65
2022/04/22 10:42:31;;;;;;;19.13;13.07;;;18.20;99.90;;;18.36;53.00;100569.13;5075266;28;20484;-66
2022/04/22 10:47:50;;;;;;;18.52;13.52;;;17.90;99.90;;;18.06;53.51;100562.34;5074753;28;20106;-66
2022/04/22 10:50:33;;;;;;;24.60;12.80;;;17.70;99.90;;;18.24;52.26;100566.94;5056894;28;20046;-73
2022/04/22 10:53:06;;;;;;;20.00;12.00;;;17.90;99.90;;;17.90;52.66;100529.97;5074603;28;20040;-73
2022/04/22 10:55:37;;;;;;;17.85;12.57;;;18.00;99.90;;;18.07;52.33;100575.66;5074975;28;20127;-73
2022/04/22 10:58:26;;;;;;;15.00;12.85;;;17.80;99.90;;;18.24;52.68;100565.16;5074769;28;20127;-73
2022/04/22 11:00:58;;;;;;;16.33;12.30;;;17.90;99.90;;;18.39;52.46;100572.56;5074764;28;20045;-73
2022/04/22 11:03:34;;;;;;;18.30;12.82;;;18.00;99.90;;;17.62;54.01;100577.44;5074351;28;20048;-72
2022/04/22 11:06:08;;;;;;;15.48;12.63;;;17.60;99.90;;;18.22;54.21;100577.72;5074736;28;20461;-73
2022/04/22 11:08:40;;;;;;;16.85;11.95;;;17.80;99.90;;;18.45;52.78;100550.91;5056847;28;20456;-73
2022/04/22 11:11:15;;;;;;;16.85;11.95;;;18.20;99.90;;;18.36;52.24;100570.03;5074742;28;20044;-73